Time;durP1;ratioP1;P1;durP2;ratioP2;P2;SDS_P1;SDS_P2;PMS_P1;PMS_P2;Temp;Humidity;BMP_temperature;BMP_pressure;BME280_temperature;BME280_humidity;BME280_pressure;Samples;Min_cycle;Max_cycle;Signal;HPM_P1;HPM_P2
2021/08/31 00:00:15;;;;;;;;;;;;;;;19.59;51.08;95761.41;1048251;28;1910;-53
2021/08/31 00:00:45;;;;;;;;;;;;;;;19.58;51.12;95757.22;1048198;28;1087;-55
2021/08/31 00:01:15;;;;;;;;;;;;;;;19.58;51.12;95763.25;1048049;28;1240;-54
2021/08/31 00:01:46;;;;;;;;;;;;;;;19.59;51.02;95756.16;1047197;28;2211;-54
2021/08/31 00:02:16;;;;;;;;;;;;;;;19.59;50.97;95764.84;1045181;28;2244;-54
2021/08/31 00:02:46;;;;;;;;;;;;;;;19.58;51.08;95760.63;1048487;28;1189;-51
2021/08/31 00:03:16;;;;;;;;;;;;;;;19.58;51.05;95768.50;1048487;28;1253;-53
2021/08/31 00:03:47;;;;;;;;;;;;;;;19.59;51.01;95761.41;1048564;28;1122;-54
2021/08/31 00:04:17;;;;;;;;;;;;;;;19.59;51.10;95764.03;1048777;28;1188;-51
2021/08/31 00:04:47;;;;;;;;;;;;;;;19.58;51.03;95767.75;1048546;28;1178;-50
2021/08/31 00:05:18;;;;;;;;;;;;;;;19.58;50.97;95762.50;1048498;28;1228;-51
2021/08/31 00:05:48;;;;;;;;;;;;;;;19.59;51.01;95764.84;1046716;28;1536;-51
2021/08/31 00:06:19;;;;;;;;;;;;;;;19.58;51.05;95762.50;1048272;28;1901;-52
2021/08/31 00:06:50;;;;;;;;;;;;;;;19.58;51.18;95757.22;1047804;28;1570;-51
2021/08/31 00:07:20;;;;;;;;;;;;;;;19.59;51.13;95767.47;1048594;28;1161;-50
2021/08/31 00:07:50;;;;;;;;;;;;;;;19.58;51.02;95757.22;1048258;28;1197;-55
2021/08/31 00:08:24;;;;;;;;;;;;;;;19.58;51.02;95758.00;1047875;28;1536;-56
2021/08/31 00:08:54;;;;;;;;;;;;;;;19.57;50.90;95756.44;1051571;28;1872;-54
2021/08/31 00:09:25;;;;;;;;;;;;;;;19.58;50.96;95763.25;1057451;28;1216;-52
2021/08/31 00:09:55;;;;;;;;;;;;;;;19.58;50.99;95759.84;1057306;28;1083;-55
2021/08/31 00:10:26;;;;;;;;;;;;;;;19.59;51.04;95758.78;1057619;28;1276;-52
2021/08/31 00:10:57;;;;;;;;;;;;;;;19.58;50.94;95763.25;1048834;28;1118;-51
2021/08/31 00:11:27;;;;;;;;;;;;;;;19.58;50.87;95760.63;1049393;28;1201;-53
2021/08/31 00:11:58;;;;;;;;;;;;;;;19.58;50.96;95762.50;1047775;28;2017;-53
2021/08/31 00:12:28;;;;;;;;;;;;;;;19.58;51.02;95767.75;1049167;28;1201;-53
2021/08/31 00:13:03;;;;;;;;;;;;;;;19.58;51.13;95765.13;1047982;28;1160;-54
2021/08/31 00:13:53;;;;;;;;;;;;;;;19.57;50.97;95766.94;1046001;28;1080;-51
2021/08/31 00:14:43;;;;;;;;;;;;;;;19.58;51.32;95762.50;1048946;28;1170;-52
2021/08/31 00:15:34;;;;;;;;;;;;;;;19.59;51.27;95764.03;1048182;28;1319;-54
2021/08/31 00:16:24;;;;;;;;;;;;;;;19.58;50.91;95762.50;1048997;28;1967;-52
2021/08/31 00:17:10;;;;;;;;;;;;;;;19.57;51.17;95764.31;1045401;28;1873;-52
2021/08/31 00:17:41;;;;;;;;;;;;;;;19.58;51.22;95762.50;1048169;28;1780;-53
2021/08/31 00:18:31;;;;;;;;;;;;;;;19.58;51.01;95762.50;1046646;28;1278;-51
2021/08/31 00:19:21;;;;;;;;;;;;;;;19.58;50.91;95765.13;1049009;28;1006;-53
2021/08/31 00:20:12;;;;;;;;;;;;;;;19.57;51.02;95763.53;1049403;28;1185;-52
2021/08/31 00:21:02;;;;;;;;;;;;;;;19.57;51.04;95766.94;1049176;28;967;-55
2021/08/31 00:21:52;;;;;;;;;;;;;;;19.57;51.10;95763.53;1048660;28;1043;-54
2021/08/31 00:22:42;;;;;;;;;;;;;;;19.56;51.13;95762.72;1047582;28;1000;-50
2021/08/31 00:23:30;;;;;;;;;;;;;;;19.58;51.10;95770.38;1047465;28;1248;-54
2021/08/31 00:24:00;;;;;;;;;;;;;;;19.58;51.10;95770.38;1048845;28;1546;-52
2021/08/31 00:24:50;;;;;;;;;;;;;;;19.58;51.16;95763.25;1048924;28;1204;-52
2021/08/31 00:25:41;;;;;;;;;;;;;;;19.58;51.02;95765.13;1047580;28;1762;-54
2021/08/31 00:26:31;;;;;;;;;;;;;;;19.58;51.16;95773.00;1045890;28;1658;-54
2021/08/31 00:27:21;;;;;;;;;;;;;;;19.58;51.12;95770.38;1047566;28;1787;-53
2021/08/31 00:28:11;;;;;;;;;;;;;;;19.58;51.14;95770.38;1049419;28;1069;-52
2021/08/31 00:29:02;;;;;;;;;;;;;;;19.57;51.02;95776.66;1049149;28;1105;-50
2021/08/31 00:29:52;;;;;;;;;;;;;;;19.57;51.06;95777.47;1048676;28;921;-53
2021/08/31 00:30:42;;;;;;;;;;;;;;;19.57;51.02;95774.84;1048389;28;1148;-55
2021/08/31 00:31:12;;;;;;;;;;;;;;;19.57;50.98;95776.66;1049491;28;1258;-53
2021/08/31 00:31:43;;;;;;;;;;;;;;;19.58;51.08;95773.78;1049682;28;1125;-51
2021/08/31 00:32:13;;;;;;;;;;;;;;;19.58;51.20;95775.63;1047935;28;2049;-52
2021/08/31 00:32:43;;;;;;;;;;;;;;;19.58;51.09;95775.63;1049518;28;1185;-56
2021/08/31 00:33:14;;;;;;;;;;;;;;;19.57;51.15;95769.56;1049585;28;1231;-55
2021/08/31 00:33:44;;;;;;;;;;;;;;;19.58;51.05;95775.63;1049110;28;1126;-49
2021/08/31 00:34:14;;;;;;;;;;;;;;;19.57;51.12;95776.66;1049488;28;1418;-55
2021/08/31 00:34:45;;;;;;;;;;;;;;;19.57;51.17;95774.84;1047506;28;1572;-53
2021/08/31 00:35:15;;;;;;;;;;;;;;;19.57;51.13;95779.31;1049407;28;1243;-52
2021/08/31 00:35:46;;;;;;;;;;;;;;;19.57;51.22;95777.47;1047795;28;2207;-54
2021/08/31 00:36:16;;;;;;;;;;;;;;;19.58;51.09;95783.53;1049342;28;1902;-53
2021/08/31 00:36:47;;;;;;;;;;;;;;;19.58;51.20;95773.00;1049213;28;1435;-52
2021/08/31 00:37:17;;;;;;;;;;;;;;;19.57;51.15;95776.66;1048057;28;2226;-54
2021/08/31 00:37:47;;;;;;;;;;;;;;;19.58;51.14;95778.25;1049147;28;1166;-55
2021/08/31 00:38:17;;;;;;;;;;;;;;;19.57;51.24;95779.31;1049319;28;1228;-55
2021/08/31 00:38:48;;;;;;;;;;;;;;;19.58;51.05;95775.63;1046901;28;1945;-52
2021/08/31 00:39:19;;;;;;;;;;;;;;;19.57;51.00;95776.66;1049047;28;1233;-51
2021/08/31 00:39:50;;;;;;;;;;;;;;;19.57;50.97;95772.22;1048758;28;1134;-51
2021/08/31 00:40:20;;;;;;;;;;;;;;;19.57;51.05;95776.66;1045097;28;1286;-52
2021/08/31 00:40:50;;;;;;;;;;;;;;;19.58;51.19;95770.38;1052997;28;1628;-51
2021/08/31 00:41:21;;;;;;;;;;;;;;;19.57;51.04;95780.09;1053356;28;1205;-55
2021/08/31 00:41:51;;;;;;;;;;;;;;;19.58;51.10;95779.03;1052992;28;1142;-49
2021/08/31 00:42:21;;;;;;;;;;;;;;;19.57;50.96;95774.03;1055808;28;2029;-51
2021/08/31 00:42:52;;;;;;;;;;;;;;;19.58;50.96;95775.63;1049395;28;1158;-49
2021/08/31 00:43:22;;;;;;;;;;;;;;;19.58;50.94;95780.91;1048716;28;1669;-53
2021/08/31 00:43:52;;;;;;;;;;;;;;;19.57;51.21;95782.72;1048621;28;1099;-52
2021/08/31 00:44:23;;;;;;;;;;;;;;;19.56;50.96;95775.88;1049066;28;1225;-53
2021/08/31 00:44:54;;;;;;;;;;;;;;;19.56;51.12;95773.25;1048957;28;1138;-55
2021/08/31 00:45:24;;;;;;;;;;;;;;;19.57;50.97;95774.03;1049092;28;1142;-49
2021/08/31 00:45:57;;;;;;;;;;;;;;;19.57;51.07;95782.72;1048912;28;1024;-52
2021/08/31 00:46:28;;;;;;;;;;;;;;;19.57;51.07;95779.31;1047573;28;1218;-51
2021/08/31 00:46:58;;;;;;;;;;;;;;;19.58;51.03;95778.25;1048226;28;1624;-53
2021/08/31 00:47:28;;;;;;;;;;;;;;;19.57;51.02;95782.72;1047924;28;2073;-53
2021/08/31 00:47:59;;;;;;;;;;;;;;;19.57;51.25;95782.72;1045610;28;2007;-55
2021/08/31 00:48:29;;;;;;;;;;;;;;;19.57;50.97;95781.94;1047814;28;2425;-53
2021/08/31 00:49:00;;;;;;;;;;;;;;;19.58;51.17;95780.91;1048027;28;1025;-55
2021/08/31 00:49:30;;;;;;;;;;;;;;;19.56;51.07;95778.50;1049237;28;1220;-51
2021/08/31 00:50:00;;;;;;;;;;;;;;;19.58;51.03;95778.25;1048943;28;1356;-55
2021/08/31 00:50:31;;;;;;;;;;;;;;;19.58;51.19;95786.16;1044659;28;1638;-52
2021/08/31 00:51:01;;;;;;;;;;;;;;;19.56;51.23;95785.63;1044900;28;1069;-53
2021/08/31 00:51:31;;;;;;;;;;;;;;;19.57;51.05;95784.56;1044723;28;1222;-52
2021/08/31 00:52:02;;;;;;;;;;;;;;;19.57;51.00;95787.19;1044950;28;1170;-52
2021/08/31 00:52:32;;;;;;;;;;;;;;;19.57;51.06;95787.19;1048673;28;1266;-53
2021/08/31 00:53:03;;;;;;;;;;;;;;;19.57;51.00;95784.56;1047960;28;2445;-50
2021/08/31 00:53:33;;;;;;;;;;;;;;;19.57;51.03;95784.56;1049293;28;1252;-54
2021/08/31 00:54:04;;;;;;;;;;;;;;;19.56;51.18;95783.75;1049354;28;1044;-53
2021/08/31 00:54:34;;;;;;;;;;;;;;;19.56;51.19;95786.41;1048478;28;1201;-53
2021/08/31 00:55:04;;;;;;;;;;;;;;;19.58;51.12;95788.78;1049037;28;1116;-52
2021/08/31 00:55:35;;;;;;;;;;;;;;;19.57;51.03;95782.72;1048906;28;1316;-51
2021/08/31 00:56:06;;;;;;;;;;;;;;;19.57;51.13;95787.19;1048830;28;1909;-50
2021/08/31 00:56:37;;;;;;;;;;;;;;;19.57;50.99;95784.56;1049007;28;1729;-54
2021/08/31 00:57:07;;;;;;;;;;;;;;;19.57;50.91;95787.97;1045787;28;1812;-51
2021/08/31 00:57:37;;;;;;;;;;;;;;;19.57;51.15;95798.50;1048885;28;2014;-53
2021/08/31 00:58:08;;;;;;;;;;;;;;;19.57;51.22;95789.81;1048116;28;2368;-51
2021/08/31 00:58:38;;;;;;;;;;;;;;;19.57;51.06;95795.88;1049000;28;1244;-53
2021/08/31 00:59:08;;;;;;;;;;;;;;;19.58;51.16;95796.66;1048960;28;1089;-54
2021/08/31 00:59:39;;;;;;;;;;;;;;;19.57;50.99;95795.06;1048833;28;1241;-53
2021/08/31 01:00:10;;;;;;;;;;;;;;;19.57;51.12;95787.19;1044918;28;1136;-53
2021/08/31 01:00:40;;;;;;;;;;;;;;;19.57;50.98;95797.72;1042629;28;1135;-54
2021/08/31 01:01:10;;;;;;;;;;;;;;;19.57;50.92;95795.88;1044682;28;1454;-53
2021/08/31 01:01:41;;;;;;;;;;;;;;;19.56;51.14;95793.50;1044995;28;1179;-54
2021/08/31 01:02:11;;;;;;;;;;;;;;;19.58;51.16;95796.66;1047735;28;2635;-55
2021/08/31 01:02:44;;;;;;;;;;;;;;;19.57;51.07;95795.88;1047156;28;2469;-54
2021/08/31 01:03:14;;;;;;;;;;;;;;;19.57;50.97;95797.72;1049157;28;1122;-49
2021/08/31 01:03:45;;;;;;;;;;;;;;;19.56;51.00;95798.78;1049377;28;1208;-54
2021/08/31 01:04:15;;;;;;;;;;;;;;;19.57;51.02;95797.72;1049297;28;1232;-56
2021/08/31 01:04:45;;;;;;;;;;;;;;;19.56;51.04;95796.91;1048703;28;1138;-52
2021/08/31 01:05:16;;;;;;;;;;;;;;;19.57;51.19;95798.50;1049013;28;1209;-54
2021/08/31 01:05:46;;;;;;;;;;;;;;;19.57;50.98;95795.88;1044170;28;1739;-52
2021/08/31 01:06:16;;;;;;;;;;;;;;;19.57;50.98;95795.06;1044622;28;1064;-53
2021/08/31 01:06:47;;;;;;;;;;;;;;;19.58;50.94;95791.41;1044751;28;1151;-52
2021/08/31 01:07:17;;;;;;;;;;;;;;;19.57;51.15;95792.44;1048836;28;1339;-52
2021/08/31 01:07:48;;;;;;;;;;;;;;;19.57;51.12;95802.97;1053063;28;1163;-51
2021/08/31 01:08:18;;;;;;;;;;;;;;;19.57;51.00;95801.13;1052144;28;2237;-52
2021/08/31 01:09:00;;;;;;;;;;;;;;;19.57;51.06;95797.72;1051109;28;1205;-54
2021/08/31 01:09:50;;;;;;;;;;;;;;;19.57;51.11;95797.72;1045620;28;1305;-53
2021/08/31 01:10:40;;;;;;;;;;;;;;;19.57;51.13;95795.06;1046937;28;1024;-54
2021/08/31 01:11:30;;;;;;;;;;;;;;;19.57;50.90;95803.75;1046911;28;1739;-51
2021/08/31 01:12:01;;;;;;;;;;;;;;;19.57;51.13;95797.72;1049139;28;1045;-52
2021/08/31 01:12:31;;;;;;;;;;;;;;;19.56;51.08;95801.41;1044486;28;1391;-49
2021/08/31 01:13:02;;;;;;;;;;;;;;;19.57;51.08;95797.72;1044884;28;1081;-54
2021/08/31 01:13:34;;;;;;;;;;;;;;;19.57;51.07;95795.06;1040142;28;2158;-53
2021/08/31 01:14:07;;;;;;;;;;;;;;;19.57;51.05;95800.34;1045138;28;1144;-54
2021/08/31 01:14:57;;;;;;;;;;;;;;;19.56;50.99;95796.91;1046200;28;1286;-52
2021/08/31 01:15:48;;;;;;;;;;;;;;;19.56;51.19;95802.16;1048800;28;1124;-53
2021/08/31 01:16:38;;;;;;;;;;;;;;;19.56;51.02;95802.16;1048861;28;1122;-51
2021/08/31 01:17:09;;;;;;;;;;;;;;;19.57;50.98;95803.75;1049189;28;1072;-55
2021/08/31 01:17:39;;;;;;;;;;;;;;;19.57;51.21;95802.97;1049098;28;1235;-55
2021/08/31 01:18:13;;;;;;;;;;;;;;;19.56;51.02;95796.91;1047954;28;1738;-49
2021/08/31 01:18:44;;;;;;;;;;;;;;;19.57;50.98;95800.34;1047430;28;2128;-49
2021/08/31 01:19:30;;;;;;;;;;;;;;;19.56;51.04;95799.53;1044398;28;1179;-53
2021/08/31 01:20:21;;;;;;;;;;;;;;;19.57;51.13;95802.97;1044493;28;1268;-52
2021/08/31 01:21:09;;;;;;;;;;;;;;;19.57;51.04;95803.75;1047409;28;1362;-56
2021/08/31 01:21:53;;;;;;;;;;;;;;;19.57;51.10;95801.13;1044007;28;1723;-54
2021/08/31 01:22:23;;;;;;;;;;;;;;;19.57;51.00;95797.72;1044633;28;1275;-53
2021/08/31 01:22:53;;;;;;;;;;;;;;;19.56;51.17;95796.16;1046718;28;1222;-49
2021/08/31 01:23:24;;;;;;;;;;;;;;;19.56;51.07;95796.91;1048008;28;2107;-53
2021/08/31 01:23:55;;;;;;;;;;;;;;;19.57;51.10;95795.06;1048420;28;1399;-52
2021/08/31 01:24:45;;;;;;;;;;;;;;;19.56;51.20;95791.66;1047282;28;1065;-53
2021/08/31 01:25:35;;;;;;;;;;;;;;;19.58;51.03;95794.03;1048149;28;1491;-53
2021/08/31 01:26:07;;;;;;;;;;;;;;;19.57;51.03;95797.72;1048520;28;1757;-53
2021/08/31 01:26:44;;;;;;;;;;;;;;;19.56;51.15;95789.03;1046072;28;1695;-54
2021/08/31 01:27:25;;;;;;;;;;;;;;;19.56;51.15;95796.16;1048530;28;1057;-52
2021/08/31 01:27:55;;;;;;;;;;;;;;;19.56;51.15;95790.88;1048493;28;1410;-51
2021/08/31 01:28:30;;;;;;;;;;;;;;;19.56;51.07;95796.91;1049064;28;1197;-54
2021/08/31 01:29:01;;;;;;;;;;;;;;;19.56;51.12;95796.16;1047811;28;2171;-52
2021/08/31 01:29:31;;;;;;;;;;;;;;;19.56;51.29;95790.88;1048814;28;1406;-52
2021/08/31 01:30:02;;;;;;;;;;;;;;;19.56;50.99;95794.28;1048804;28;1132;-50
2021/08/31 01:30:32;;;;;;;;;;;;;;;19.56;51.05;95796.91;1048718;28;1201;-55
2021/08/31 01:31:03;;;;;;;;;;;;;;;19.56;51.10;95796.91;1044693;28;1510;-52
2021/08/31 01:31:33;;;;;;;;;;;;;;;19.56;51.13;95794.28;1049265;28;1312;-52
2021/08/31 01:32:04;;;;;;;;;;;;;;;19.57;51.20;95797.72;1048494;28;1124;-49
2021/08/31 01:32:34;;;;;;;;;;;;;;;19.56;51.08;95796.91;1047679;28;2067;-52
2021/08/31 01:33:04;;;;;;;;;;;;;;;19.55;51.16;95792.72;1048557;28;1069;-52
2021/08/31 01:33:35;;;;;;;;;;;;;;;19.56;51.04;95802.16;1048435;28;2115;-54
2021/08/31 01:34:05;;;;;;;;;;;;;;;19.56;51.11;95796.16;1048290;28;1464;-53
2021/08/31 01:34:35;;;;;;;;;;;;;;;19.57;51.22;95795.06;1049124;28;1244;-50
2021/08/31 01:35:06;;;;;;;;;;;;;;;19.55;50.97;95795.34;1048147;28;1659;-53
2021/08/31 01:35:36;;;;;;;;;;;;;;;19.56;51.21;95804.03;1048965;28;1091;-51
2021/08/31 01:36:33;;;;;;;;;;;;;;;19.56;51.10;95798.78;1048891;28;1922;-52
2021/08/31 01:37:03;;;;;;;;;;;;;;;19.56;51.17;95801.41;1044978;28;1723;-54
2021/08/31 01:37:34;;;;;;;;;;;;;;;19.56;51.15;95798.78;1048624;28;1320;-54
2021/08/31 01:38:04;;;;;;;;;;;;;;;19.56;50.83;95804.03;1048818;28;1117;-53
2021/08/31 01:38:34;;;;;;;;;;;;;;;19.55;51.12;95797.19;1047596;28;1715;-51
2021/08/31 01:39:05;;;;;;;;;;;;;;;19.55;51.19;95805.06;1045756;28;2149;-53
2021/08/31 01:39:35;;;;;;;;;;;;;;;19.56;51.10;95804.03;1048401;28;1213;-53
2021/08/31 01:40:06;;;;;;;;;;;;;;;19.56;51.17;95801.41;1047187;28;1674;-54
2021/08/31 01:40:36;;;;;;;;;;;;;;;19.56;51.15;95801.41;1048039;28;1317;-53
2021/08/31 01:41:06;;;;;;;;;;;;;;;19.56;51.05;95806.66;1049180;28;1072;-55
2021/08/31 01:41:36;;;;;;;;;;;;;;;19.56;50.92;95804.03;1049061;28;1287;-52
2021/08/31 01:42:07;;;;;;;;;;;;;;;19.56;51.06;95806.66;1048941;28;1233;-54
2021/08/31 01:42:37;;;;;;;;;;;;;;;19.56;51.15;95804.03;1048831;28;1233;-49
2021/08/31 01:43:07;;;;;;;;;;;;;;;19.55;51.11;95799.81;1049096;28;1076;-50
2021/08/31 01:43:38;;;;;;;;;;;;;;;19.56;51.17;95804.03;1047191;28;1998;-55
2021/08/31 01:44:08;;;;;;;;;;;;;;;19.55;51.15;95800.59;1048720;28;1344;-53
2021/08/31 01:44:39;;;;;;;;;;;;;;;19.56;51.21;95801.41;1048884;28;1169;-51
2021/08/31 01:45:09;;;;;;;;;;;;;;;19.55;51.12;95797.19;1049121;28;1115;-53
2021/08/31 01:45:41;;;;;;;;;;;;;;;19.56;50.80;95806.66;1048979;28;1169;-52
2021/08/31 01:46:11;;;;;;;;;;;;;;;19.57;51.13;95803.75;1048865;28;1488;-53
2021/08/31 01:46:41;;;;;;;;;;;;;;;19.57;51.08;95800.34;1047823;28;1676;-54
2021/08/31 01:47:12;;;;;;;;;;;;;;;19.56;51.23;95804.03;1048994;28;1027;-50
2021/08/31 01:47:43;;;;;;;;;;;;;;;19.56;51.00;95807.44;1049117;28;1146;-51
2021/08/31 01:48:13;;;;;;;;;;;;;;;19.56;51.17;95801.41;1048747;28;1355;-50
2021/08/31 01:48:43;;;;;;;;;;;;;;;19.56;51.10;95801.41;1047323;28;2215;-55
2021/08/31 01:49:14;;;;;;;;;;;;;;;19.55;51.07;95803.25;1048650;28;1048;-50
2021/08/31 01:49:44;;;;;;;;;;;;;;;19.56;51.04;95802.16;1048660;28;1143;-51
2021/08/31 01:50:14;;;;;;;;;;;;;;;19.56;50.99;95807.44;1049188;28;1157;-52
2021/08/31 01:50:45;;;;;;;;;;;;;;;19.56;51.17;95806.66;1047550;28;2187;-53
2021/08/31 01:51:15;;;;;;;;;;;;;;;19.55;51.09;95805.88;1049163;28;1252;-50
2021/08/31 01:51:45;;;;;;;;;;;;;;;19.56;51.13;95804.03;1048697;28;1297;-52
2021/08/31 01:52:15;;;;;;;;;;;;;;;19.56;51.26;95801.41;1048531;28;1244;-52
2021/08/31 01:52:46;;;;;;;;;;;;;;;19.56;50.95;95806.66;1048388;28;1170;-51
2021/08/31 01:53:16;;;;;;;;;;;;;;;19.56;51.01;95798.78;1048566;28;1316;-50
2021/08/31 01:53:46;;;;;;;;;;;;;;;19.56;50.89;95802.16;1047629;28;2147;-54
2021/08/31 01:54:17;;;;;;;;;;;;;;;19.55;51.01;95797.97;1049117;28;1276;-51
2021/08/31 01:54:47;;;;;;;;;;;;;;;19.55;51.09;95808.50;1048500;28;1549;-54
2021/08/31 01:55:17;;;;;;;;;;;;;;;19.55;51.15;95810.34;1048572;28;989;-51
2021/08/31 01:55:47;;;;;;;;;;;;;;;19.55;51.00;95802.44;1048828;28;1195;-52
2021/08/31 01:56:18;;;;;;;;;;;;;;;19.55;51.06;95799.81;1048960;28;1988;-56
2021/08/31 01:56:48;;;;;;;;;;;;;;;19.56;50.98;95801.41;1048865;28;1185;-53
2021/08/31 01:57:18;;;;;;;;;;;;;;;19.56;51.10;95809.28;1048801;28;1251;-53
2021/08/31 01:57:49;;;;;;;;;;;;;;;19.55;51.28;95795.34;1049119;28;1146;-50
2021/08/31 01:58:19;;;;;;;;;;;;;;;19.55;50.96;95800.59;1049077;28;1252;-53
2021/08/31 01:58:49;;;;;;;;;;;;;;;19.55;51.12;95805.06;1047408;28;2118;-53
2021/08/31 01:59:20;;;;;;;;;;;;;;;19.54;51.21;95799.03;1048886;28;1157;-49
2021/08/31 01:59:50;;;;;;;;;;;;;;;19.56;51.17;95806.66;1048995;28;1142;-51
2021/08/31 02:00:20;;;;;;;;;;;;;;;19.55;51.25;95795.34;1049174;28;1315;-52
2021/08/31 02:00:51;;;;;;;;;;;;;;;19.56;51.28;95801.41;1048665;28;1127;-50
2021/08/31 02:01:21;;;;;;;;;;;;;;;19.55;51.18;95800.59;1048659;28;1095;-52
2021/08/31 02:01:51;;;;;;;;;;;;;;;19.56;51.12;95802.16;1043544;28;2189;-52
2021/08/31 02:02:22;;;;;;;;;;;;;;;19.54;51.17;95801.66;1044635;28;1362;-54
2021/08/31 02:02:52;;;;;;;;;;;;;;;19.55;51.11;95802.44;1047649;28;1584;-51
2021/08/31 02:03:22;;;;;;;;;;;;;;;19.53;50.95;95797.47;1048572;28;1300;-53
2021/08/31 02:03:53;;;;;;;;;;;;;;;19.54;51.22;95801.66;1047659;28;2003;-51
2021/08/31 02:04:23;;;;;;;;;;;;;;;19.55;51.07;95799.81;1048760;28;1410;-56
2021/08/31 02:04:54;;;;;;;;;;;;;;;19.55;51.17;95799.81;1048602;28;1170;-52
2021/08/31 02:05:25;;;;;;;;;;;;;;;19.56;51.26;95796.16;1044338;28;1328;-54
2021/08/31 02:05:55;;;;;;;;;;;;;;;19.56;51.17;95804.03;1044464;28;1144;-55
2021/08/31 02:06:26;;;;;;;;;;;;;;;19.56;51.21;95804.03;1048263;28;1174;-55
2021/08/31 02:06:56;;;;;;;;;;;;;;;19.56;51.12;95801.41;1048672;28;1173;-50
2021/08/31 02:07:26;;;;;;;;;;;;;;;19.55;51.20;95805.88;1048622;28;1178;-53
2021/08/31 02:07:57;;;;;;;;;;;;;;;19.55;51.21;95799.81;1048968;28;1256;-50
2021/08/31 02:08:27;;;;;;;;;;;;;;;19.55;51.07;95805.06;1048375;28;1640;-52
2021/08/31 02:08:57;;;;;;;;;;;;;;;19.57;51.06;95805.59;1047351;28;2142;-54
2021/08/31 02:09:27;;;;;;;;;;;;;;;19.56;51.03;95796.16;1048758;28;1264;-56
2021/08/31 02:09:58;;;;;;;;;;;;;;;19.56;51.00;95806.66;1048918;28;1366;-54
2021/08/31 02:10:28;;;;;;;;;;;;;;;19.56;51.27;95801.41;1048937;28;1361;-52
2021/08/31 02:10:58;;;;;;;;;;;;;;;19.56;51.17;95806.66;1048964;28;1245;-52
2021/08/31 02:11:29;;;;;;;;;;;;;;;19.55;51.01;95805.88;1048825;28;1209;-48
2021/08/31 02:11:59;;;;;;;;;;;;;;;19.56;50.85;95804.03;1048931;28;1728;-49
2021/08/31 02:12:29;;;;;;;;;;;;;;;19.56;51.26;95806.66;1048731;28;1398;-50
2021/08/31 02:12:59;;;;;;;;;;;;;;;19.55;51.13;95800.59;1048466;28;1264;-53
2021/08/31 02:13:30;;;;;;;;;;;;;;;19.55;50.90;95799.81;1048669;28;1253;-53
2021/08/31 02:14:00;;;;;;;;;;;;;;;19.56;51.04;95809.28;1047420;28;2054;-52
2021/08/31 02:14:30;;;;;;;;;;;;;;;19.55;51.21;95805.06;1048624;28;1268;-51
2021/08/31 02:15:01;;;;;;;;;;;;;;;19.55;50.93;95803.25;1048981;28;1351;-53
2021/08/31 02:15:31;;;;;;;;;;;;;;;19.55;51.29;95805.06;1048909;28;1296;-55
2021/08/31 02:16:02;;;;;;;;;;;;;;;19.55;51.15;95803.25;1047564;28;993;-52
2021/08/31 02:16:32;;;;;;;;;;;;;;;19.56;50.99;95804.03;1048467;28;1961;-53
2021/08/31 02:17:02;;;;;;;;;;;;;;;19.55;50.98;95799.81;1048685;28;1120;-50
2021/08/31 02:17:33;;;;;;;;;;;;;;;19.56;51.10;95806.66;1047283;28;1862;-50
2021/08/31 02:18:03;;;;;;;;;;;;;;;19.55;51.13;95802.44;1047491;28;1792;-53
2021/08/31 02:18:34;;;;;;;;;;;;;;;19.54;51.12;95804.28;1048941;28;1311;-50
2021/08/31 02:19:05;;;;;;;;;;;;;;;19.55;51.27;95805.88;1047667;28;2089;-51
2021/08/31 02:19:35;;;;;;;;;;;;;;;19.55;51.05;95803.25;1044851;28;1988;-51
2021/08/31 02:20:06;;;;;;;;;;;;;;;19.54;51.23;95804.28;1044767;28;1938;-54
2021/08/31 02:20:36;;;;;;;;;;;;;;;19.54;51.13;95804.28;1047716;28;2519;-53
2021/08/31 02:21:06;;;;;;;;;;;;;;;19.54;51.11;95806.91;1048554;28;1140;-50
2021/08/31 02:21:37;;;;;;;;;;;;;;;19.55;51.12;95808.50;1048590;28;1304;-53
2021/08/31 02:22:07;;;;;;;;;;;;;;;19.55;51.17;95805.06;1048586;28;1181;-50
2021/08/31 02:22:41;;;;;;;;;;;;;;;19.54;51.22;95800.88;1048801;28;1272;-54
2021/08/31 02:23:11;;;;;;;;;;;;;;;19.55;51.13;95799.81;1049125;28;1220;-49
2021/08/31 02:23:41;;;;;;;;;;;;;;;19.54;51.11;95809.53;1047118;28;1118;-49
2021/08/31 02:24:12;;;;;;;;;;;;;;;19.54;50.93;95809.53;1048801;28;1172;-53
2021/08/31 02:24:42;;;;;;;;;;;;;;;19.54;51.11;95800.88;1047604;28;2432;-54
2021/08/31 02:25:12;;;;;;;;;;;;;;;19.53;51.04;95805.34;1048965;28;1267;-53
2021/08/31 02:25:43;;;;;;;;;;;;;;;19.54;51.25;95809.53;1048840;28;1085;-55
2021/08/31 02:26:13;;;;;;;;;;;;;;;19.55;51.11;95811.13;1055510;28;1272;-55
2021/08/31 02:26:43;;;;;;;;;;;;;;;19.55;51.20;95808.50;1056938;28;1125;-49
2021/08/31 02:27:14;;;;;;;;;;;;;;;19.54;51.09;95806.91;1057006;28;1234;-56
2021/08/31 02:27:44;;;;;;;;;;;;;;;19.54;51.23;95809.53;1056829;28;1205;-51
2021/08/31 02:28:15;;;;;;;;;;;;;;;19.55;51.23;95807.69;1048844;28;1204;-55
2021/08/31 02:28:46;;;;;;;;;;;;;;;19.54;51.08;95812.16;1048643;28;1059;-54
2021/08/31 02:29:17;;;;;;;;;;;;;;;19.54;51.32;95811.41;1047951;28;1607;-53
2021/08/31 02:29:47;;;;;;;;;;;;;;;19.54;51.20;95809.53;1047008;28;2144;-50
2021/08/31 02:30:17;;;;;;;;;;;;;;;19.54;51.22;95814.78;1048769;28;1232;-52
2021/08/31 02:30:48;;;;;;;;;;;;;;;19.55;51.08;95807.69;1048721;28;1040;-52
2021/08/31 02:31:18;;;;;;;;;;;;;;;19.55;51.02;95815.59;1048859;28;1232;-51
2021/08/31 02:31:48;;;;;;;;;;;;;;;19.54;51.20;95811.41;1049330;28;1252;-49
2021/08/31 02:32:18;;;;;;;;;;;;;;;19.54;51.25;95814.78;1048444;28;1319;-53
2021/08/31 02:32:49;;;;;;;;;;;;;;;19.54;51.30;95804.28;1048723;28;1126;-49
2021/08/31 02:33:19;;;;;;;;;;;;;;;19.54;51.14;95809.53;1049031;28;1232;-54
2021/08/31 02:33:50;;;;;;;;;;;;;;;19.55;51.06;95805.06;1048620;28;1147;-54
2021/08/31 02:34:20;;;;;;;;;;;;;;;19.54;51.16;95811.41;1044382;28;1486;-52
2021/08/31 02:34:50;;;;;;;;;;;;;;;19.55;51.09;95810.34;1041981;28;2214;-55
2021/08/31 02:35:20;;;;;;;;;;;;;;;19.54;51.20;95812.16;1044517;28;1315;-53
2021/08/31 02:35:51;;;;;;;;;;;;;;;19.54;51.27;95806.13;1048433;28;1182;-51
2021/08/31 02:36:21;;;;;;;;;;;;;;;19.54;51.12;95814.78;1048758;28;1975;-51
2021/08/31 02:36:51;;;;;;;;;;;;;;;19.56;51.05;95814.56;1048521;28;1343;-52
2021/08/31 02:37:22;;;;;;;;;;;;;;;19.56;50.88;95809.28;1046217;28;1166;-54
2021/08/31 02:37:52;;;;;;;;;;;;;;;19.54;51.25;95814.78;1048788;28;1122;-52
2021/08/31 02:38:23;;;;;;;;;;;;;;;19.55;50.99;95808.50;1048970;28;1213;-55
2021/08/31 02:38:53;;;;;;;;;;;;;;;19.55;51.04;95815.59;1047502;28;1830;-54
2021/08/31 02:39:23;;;;;;;;;;;;;;;19.55;51.05;95815.59;1048902;28;1220;-53
2021/08/31 02:39:54;;;;;;;;;;;;;;;19.56;51.42;95811.91;1047319;28;2052;-51
2021/08/31 02:40:24;;;;;;;;;;;;;;;19.55;51.11;95818.22;1048734;28;1217;-49
2021/08/31 02:40:54;;;;;;;;;;;;;;;19.54;51.09;95814.03;1048113;28;1159;-53
2021/08/31 02:41:25;;;;;;;;;;;;;;;19.54;51.09;95811.41;1048610;28;1214;-54
2021/08/31 02:41:55;;;;;;;;;;;;;;;19.54;51.15;95817.41;1048403;28;1155;-50
2021/08/31 02:42:25;;;;;;;;;;;;;;;19.54;51.24;95814.78;1048859;28;1300;-51
2021/08/31 02:42:55;;;;;;;;;;;;;;;19.55;51.11;95815.59;1048161;28;1241;-53
2021/08/31 02:43:26;;;;;;;;;;;;;;;19.54;51.19;95814.03;1048455;28;1683;-53
2021/08/31 02:43:56;;;;;;;;;;;;;;;19.54;51.15;95814.78;1047927;28;1281;-52
2021/08/31 02:44:26;;;;;;;;;;;;;;;19.54;51.23;95819.28;1048585;28;1284;-53
2021/08/31 02:44:57;;;;;;;;;;;;;;;19.54;51.16;95817.41;1047369;28;2566;-53
2021/08/31 02:45:27;;;;;;;;;;;;;;;19.54;51.32;95814.78;1048997;28;1217;-50
2021/08/31 02:45:57;;;;;;;;;;;;;;;19.55;51.21;95820.84;1048848;28;1304;-49
2021/08/31 02:46:28;;;;;;;;;;;;;;;19.54;51.30;95820.06;1047140;28;1553;-50
2021/08/31 02:46:58;;;;;;;;;;;;;;;19.55;51.07;95818.22;1048642;28;1197;-50
2021/08/31 02:47:29;;;;;;;;;;;;;;;19.55;51.13;95811.13;1048109;28;2144;-49
2021/08/31 02:47:59;;;;;;;;;;;;;;;19.55;51.14;95821.66;1048419;28;1777;-54
2021/08/31 02:48:29;;;;;;;;;;;;;;;19.54;51.17;95817.41;1048793;28;1288;-53
2021/08/31 02:48:59;;;;;;;;;;;;;;;19.54;51.13;95819.28;1048265;28;1167;-50
2021/08/31 02:49:30;;;;;;;;;;;;;;;19.55;51.19;95820.84;1048338;28;2068;-52
2021/08/31 02:50:00;;;;;;;;;;;;;;;19.54;51.22;95820.06;1047943;28;1440;-51
2021/08/31 02:50:30;;;;;;;;;;;;;;;19.55;50.87;95815.59;1048594;28;1253;-52
2021/08/31 02:51:01;;;;;;;;;;;;;;;19.54;51.13;95814.78;1048739;28;1285;-51
2021/08/31 02:51:31;;;;;;;;;;;;;;;19.54;51.09;95814.03;1048560;28;1098;-54
2021/08/31 02:52:01;;;;;;;;;;;;;;;19.54;51.11;95819.28;1048929;28;1169;-52